Time;durP1;ratioP1;P1;durP2;ratioP2;P2;SDS_P1;SDS_P2;PMS_P1;PMS_P2;Temp;Humidity;BMP_temperature;BMP_pressure;BME280_temperature;BME280_humidity;BME280_pressure;Samples;Min_cycle;Max_cycle;Signal;HPM_P1;HPM_P2
2021/01/29 00:01:17;;;;;;;81.20;24.55;;;8.00;99.90;;;;;;5032419;28;20335;-67
2021/01/29 00:03:43;;;;;;;82.57;25.45;;;8.00;99.90;;;;;;5032560;28;20041;-68
2021/01/29 00:06:09;;;;;;;74.85;23.88;;;8.00;99.90;;;;;;5032897;28;20037;-68
2021/01/29 00:08:35;;;;;;;78.95;25.05;;;8.00;99.90;;;;;;5031819;28;20043;-68
2021/01/29 00:11:02;;;;;;;70.63;22.73;;;8.00;99.90;;;;;;5032446;28;20025;-68
2021/01/29 00:13:28;;;;;;;73.10;25.05;;;8.00;99.90;;;;;;5031980;28;20422;-68
2021/01/29 00:15:54;;;;;;;86.28;27.02;;;8.00;99.90;;;;;;5032666;28;20021;-68
2021/01/29 00:18:20;;;;;;;77.65;25.60;;;8.00;99.90;;;;;;5033002;28;20026;-68
2021/01/29 00:20:46;;;;;;;78.65;25.77;;;8.00;99.90;;;;;;5031708;28;20033;-68
2021/01/29 00:23:12;;;;;;;73.53;26.42;;;8.00;99.90;;;;;;5032700;28;20087;-68
2021/01/29 00:25:41;;;;;;;79.00;24.95;;;8.00;99.90;;;;;;5032329;28;20087;-67
2021/01/29 00:28:07;;;;;;;83.75;26.15;;;8.10;99.90;;;;;;5032064;28;20032;-68
2021/01/29 00:30:34;;;;;;;90.47;27.98;;;8.00;99.90;;;;;;5032724;28;20026;-68
2021/01/29 00:33:02;;;;;;;85.47;26.40;;;8.10;99.90;;;;;;5032131;28;20021;-67
2021/01/29 00:35:30;;;;;;;83.05;25.90;;;8.00;99.90;;;;;;5031958;28;20017;-67
2021/01/29 00:37:57;;;;;;;92.78;27.30;;;8.10;99.90;;;;;;5031856;28;20394;-67
2021/01/29 00:40:22;;;;;;;95.20;27.42;;;8.10;99.90;;;;;;5032267;28;20047;-68
2021/01/29 00:42:48;;;;;;;81.95;27.35;;;8.10;99.90;;;;;;5031336;28;20021;-68
2021/01/29 00:45:16;;;;;;;94.03;29.15;;;8.10;99.90;;;;;;5032184;28;20033;-68
2021/01/29 00:47:42;;;;;;;99.85;28.90;;;8.10;99.90;;;;;;5032099;28;20030;-68
2021/01/29 00:50:09;;;;;;;91.90;30.10;;;8.10;99.90;;;;;;5031453;28;20045;-68
2021/01/29 00:52:35;;;;;;;96.93;32.55;;;8.10;99.90;;;;;;5031782;28;20056;-67
2021/01/29 00:55:00;;;;;;;95.53;34.30;;;8.10;99.90;;;;;;5031811;28;20018;-68
2021/01/29 00:57:26;;;;;;;104.18;34.83;;;8.10;99.90;;;;;;5030859;28;20025;-68
2021/01/29 00:59:51;;;;;;;94.80;33.95;;;8.10;99.90;;;;;;5031703;28;20103;-68
2021/01/29 01:02:17;;;;;;;105.18;33.97;;;8.10;99.90;;;;;;5032323;28;20463;-68
2021/01/29 01:04:43;;;;;;;110.78;35.97;;;8.20;99.90;;;;;;5031014;28;20025;-68
2021/01/29 01:07:11;;;;;;;106.40;36.60;;;8.20;99.90;;;;;;5032273;28;20389;-68
2021/01/29 01:09:36;;;;;;;105.43;35.72;;;8.20;99.90;;;;;;5031463;28;20127;-68
2021/01/29 01:12:02;;;;;;;106.72;36.25;;;8.20;99.90;;;;;;5031223;28;20461;-68
2021/01/29 01:14:27;;;;;;;106.63;34.72;;;8.30;99.90;;;;;;5032037;28;20026;-68
2021/01/29 01:16:53;;;;;;;107.85;35.80;;;8.30;99.90;;;;;;5030926;28;20373;-68
2021/01/29 01:19:18;;;;;;;110.32;33.30;;;8.30;99.90;;;;;;5031669;28;20371;-68
2021/01/29 01:21:44;;;;;;;104.07;34.28;;;8.30;99.90;;;;;;5031495;28;20389;-67
2021/01/29 01:24:10;;;;;;;90.00;34.67;;;8.30;99.90;;;;;;5031219;28;20469;-68
2021/01/29 01:26:35;;;;;;;88.07;34.28;;;8.40;99.90;;;;;;5031832;28;20048;-68
2021/01/29 01:29:01;;;;;;;102.53;34.58;;;8.40;99.90;;;;;;5031559;28;20025;-68
2021/01/29 01:31:26;;;;;;;84.93;32.13;;;8.40;99.90;;;;;;5030862;28;20045;-68
2021/01/29 01:33:52;;;;;;;99.47;35.20;;;8.30;99.90;;;;;;5031547;28;20014;-68
2021/01/29 01:36:17;;;;;;;89.13;34.80;;;8.40;99.90;;;;;;5031413;28;20028;-68
2021/01/29 01:38:43;;;;;;;88.10;34.63;;;8.40;99.90;;;;;;5030679;28;20112;-68
2021/01/29 01:41:10;;;;;;;88.50;34.42;;;8.40;99.90;;;;;;5031558;28;20025;-68
2021/01/29 01:43:36;;;;;;;97.07;32.15;;;8.50;99.90;;;;;;5031589;28;20434;-68
2021/01/29 01:46:11;;;;;;;104.95;36.60;;;8.50;99.90;;;;;;5030597;28;20095;-68
2021/01/29 01:49:06;;;;;;;103.13;30.90;;;8.50;99.90;;;;;;5018300;28;20036;-68
2021/01/29 01:51:41;;;;;;;86.20;32.33;;;8.50;99.90;;;;;;5031440;28;20037;-68
2021/01/29 01:54:26;;;;;;;91.60;31.77;;;8.50;99.90;;;;;;5031035;28;20025;-68
2021/01/29 01:56:56;;;;;;;91.63;33.45;;;8.50;99.90;;;;;;5030229;28;20122;-68
2021/01/29 01:59:26;;;;;;;81.90;31.50;;;8.50;99.90;;;;;;5030655;28;20500;-68
2021/01/29 02:01:54;;;;;;;90.25;35.42;;;8.50;99.90;;;;;;5031064;28;20068;-68
2021/01/29 02:04:22;;;;;;;88.13;32.85;;;8.50;99.90;;;;;;5031295;28;20018;-68
2021/01/29 02:06:54;;;;;;;92.43;34.15;;;8.50;99.90;;;;;;5030494;28;20069;-68
2021/01/29 02:09:23;;;;;;;98.13;32.80;;;8.50;99.90;;;;;;5034516;28;20020;-68
2021/01/29 02:11:50;;;;;;;92.35;32.78;;;8.60;99.90;;;;;;5034367;28;20032;-68
2021/01/29 02:14:16;;;;;;;83.60;33.35;;;8.50;99.90;;;;;;5034397;28;20017;-67
2021/01/29 02:16:54;;;;;;;87.47;33.42;;;8.50;99.90;;;;;;5027429;28;20526;-68
2021/01/29 02:20:12;;;;;;;78.93;32.50;;;8.50;99.90;;;;;;5027710;28;20079;-67
2021/01/29 02:22:56;;;;;;;92.53;33.10;;;8.50;99.90;;;;;;4981139;28;20074;-67
2021/01/29 02:25:40;;;;;;;79.47;31.95;;;8.50;99.90;;;;;;5034480;28;20095;-68
2021/01/29 02:28:34;;;;;;;88.18;34.95;;;8.50;99.90;;;;;;5034562;28;20026;-67
2021/01/29 02:31:30;;;;;;;84.32;31.60;;;8.50;99.90;;;;;;5003535;28;20029;-67
2021/01/29 02:34:28;;;;;;;82.30;32.58;;;8.50;99.90;;;;;;5034337;28;20040;-68
2021/01/29 02:36:59;;;;;;;86.90;31.55;;;8.50;99.90;;;;;;5034255;28;20040;-67
2021/01/29 02:39:28;;;;;;;85.07;32.00;;;8.50;99.90;;;;;;5034468;28;20080;-67
2021/01/29 02:42:03;;;;;;;76.90;31.05;;;8.50;99.90;;;;;;5033552;28;20079;-68
2021/01/29 02:44:34;;;;;;;74.75;31.48;;;8.50;99.90;;;;;;5034511;28;20021;-68
2021/01/29 02:47:11;;;;;;;91.65;30.08;;;8.50;99.90;;;;;;5034025;28;20522;-68
2021/01/29 02:50:14;;;;;;;71.32;27.95;;;8.50;99.90;;;;;;5033758;28;20018;-68
2021/01/29 02:53:01;;;;;;;70.15;27.02;;;8.50;99.90;;;;;;5034063;28;20060;-68
2021/01/29 02:55:38;;;;;;;73.15;30.13;;;8.50;99.90;;;;;;5033450;28;20493;-67
2021/01/29 02:58:17;;;;;;;63.33;25.52;;;8.60;99.90;;;;;;5033914;28;20071;-68
2021/01/29 03:00:55;;;;;;;56.72;25.65;;;8.50;99.90;;;;;;5034087;28;20060;-68
2021/01/29 03:03:54;;;;;;;54.63;25.20;;;8.50;99.90;;;;;;5033244;28;20026;-68
2021/01/29 03:06:27;;;;;;;61.00;24.48;;;8.60;99.90;;;;;;5033209;28;20041;-68
2021/01/29 03:08:59;;;;;;;48.83;23.10;;;8.60;99.90;;;;;;5033897;28;20160;-68
2021/01/29 03:11:52;;;;;;;46.10;21.67;;;8.60;99.90;;;;;;5033078;28;20531;-68
2021/01/29 03:14:31;;;;;;;46.53;21.05;;;8.60;99.90;;;;;;5033998;28;20068;-68
2021/01/29 03:17:08;;;;;;;46.17;20.00;;;8.60;99.90;;;;;;5033116;28;20104;-68
2021/01/29 03:19:41;;;;;;;37.50;19.33;;;8.70;99.90;;;;;;5033114;28;20104;-68
2021/01/29 03:22:41;;;;;;;34.97;18.02;;;8.60;99.90;;;;;;5033764;28;20017;-68
2021/01/29 03:25:14;;;;;;;51.35;18.27;;;8.60;99.90;;;;;;5013010;28;20045;-68
2021/01/29 03:27:45;;;;;;;37.55;17.02;;;8.70;99.90;;;;;;5033861;28;20107;-68
2021/01/29 03:30:18;;;;;;;42.35;17.85;;;8.70;99.90;;;;;;5033477;28;20144;-68
2021/01/29 03:32:48;;;;;;;40.28;16.55;;;8.70;99.90;;;;;;5033233;28;20034;-68
2021/01/29 03:35:33;;;;;;;35.78;15.23;;;8.70;99.90;;;;;;5033428;28;20021;-68
2021/01/29 03:37:58;;;;;;;32.63;15.90;;;8.70;99.90;;;;;;5032603;28;20565;-69
2021/01/29 03:40:24;;;;;;;31.20;14.88;;;8.70;99.90;;;;;;5033483;28;20477;-68
2021/01/29 03:42:59;;;;;;;29.27;15.55;;;8.70;99.90;;;;;;5033239;28;20108;-68
2021/01/29 03:45:43;;;;;;;24.35;14.15;;;8.70;99.90;;;;;;5032373;28;20041;-68
2021/01/29 03:48:21;;;;;;;26.20;14.50;;;8.80;99.90;;;;;;5033204;28;20481;-68
2021/01/29 03:50:57;;;;;;;26.95;13.23;;;8.80;99.90;;;;;;5032905;28;20092;-68
2021/01/29 03:54:04;;;;;;;26.02;14.02;;;8.80;99.90;;;;;;5032141;28;20132;-68
2021/01/29 03:56:38;;;;;;;20.85;13.40;;;8.90;99.90;;;;;;5033276;28;20030;-68
2021/01/29 03:59:25;;;;;;;26.58;13.82;;;8.80;99.90;;;;;;5032149;28;20021;-68
2021/01/29 04:02:18;;;;;;;22.80;13.75;;;8.90;99.90;;;;;;5032805;28;20034;-68
2021/01/29 04:05:05;;;;;;;24.38;11.70;;;8.90;99.90;;;;;;5032614;28;20018;-68
2021/01/29 04:07:39;;;;;;;19.20;12.02;;;8.90;99.90;;;;;;5032291;28;20068;-68
2021/01/29 04:10:17;;;;;;;19.23;12.02;;;8.90;99.90;;;;;;5032397;28;20105;-68
2021/01/29 04:12:57;;;;;;;16.25;11.13;;;8.90;99.90;;;;;;5031701;28;20144;-68
2021/01/29 04:15:39;;;;;;;16.40;10.63;;;9.00;99.90;;;;;;5032912;28;20022;-68
2021/01/29 04:18:28;;;;;;;15.93;9.73;;;9.00;99.90;;;;;;5032423;28;20040;-68
2021/01/29 04:21:07;;;;;;;13.77;8.43;;;9.00;99.90;;;;;;5020456;28;20112;-68
2021/01/29 04:23:43;;;;;;;12.27;8.57;;;9.10;99.90;;;;;;5032776;28;20075;-68
2021/01/29 04:26:16;;;;;;;12.07;8.57;;;9.10;99.90;;;;;;5032405;28;20037;-68
2021/01/29 04:28:47;;;;;;;13.23;8.20;;;9.20;99.90;;;;;;5031532;28;20028;-68
2021/01/29 04:31:15;;;;;;;8.45;7.55;;;9.30;99.90;;;;;;5031432;28;20026;-68
2021/01/29 04:33:46;;;;;;;10.52;8.25;;;9.30;99.90;;;;;;5031003;28;20462;-68
2021/01/29 04:36:15;;;;;;;9.65;7.55;;;9.30;99.90;;;;;;5032468;28;20041;-68
2021/01/29 04:38:47;;;;;;;7.63;6.80;;;9.30;99.90;;;;;;5031362;28;20033;-68
2021/01/29 04:41:18;;;;;;;7.68;6.10;;;9.30;99.90;;;;;;5031220;28;20049;-68
2021/01/29 04:43:55;;;;;;;8.18;5.80;;;9.30;99.90;;;;;;5031501;28;20108;-68
2021/01/29 04:46:37;;;;;;;5.25;4.63;;;9.40;99.90;;;;;;5031564;28;20045;-68
2021/01/29 04:49:34;;;;;;;8.75;4.10;;;9.30;99.90;;;;;;5030271;28;20026;-68
2021/01/29 04:52:18;;;;;;;4.43;4.05;;;9.40;99.90;;;;;;5031043;28;20050;-68
2021/01/29 04:55:13;;;;;;;6.53;4.68;;;9.30;99.90;;;;;;5018242;28;20025;-68
2021/01/29 04:58:09;;;;;;;5.03;3.95;;;9.30;99.90;;;;;;5032344;28;20504;-68
2021/01/29 05:01:02;;;;;;;6.70;4.63;;;9.30;99.90;;;;;;5031565;28;20033;-69
2021/01/29 05:03:36;;;;;;;4.03;3.63;;;9.20;99.90;;;;;;5031452;28;20049;-68
2021/01/29 05:06:15;;;;;;;4.75;3.67;;;9.10;99.90;;;;;;5031287;28;20077;-68
2021/01/29 05:09:13;;;;;;;7.63;3.28;;;9.20;99.90;;;;;;5031505;28;20079;-68
2021/01/29 05:12:13;;;;;;;3.38;2.25;;;9.20;99.90;;;;;;5031728;28;20036;-68
2021/01/29 05:15:31;;;;;;;3.83;1.75;;;9.10;99.90;;;;;;5031766;28;20033;-68
2021/01/29 05:18:28;;;;;;;2.47;1.48;;;9.20;99.90;;;;;;5000611;28;20030;-68
2021/01/29 05:21:24;;;;;;;2.47;0.90;;;9.10;99.90;;;;;;5019176;28;20358;-68
2021/01/29 05:24:23;;;;;;;4.00;0.90;;;9.10;99.90;;;;;;5030143;28;20480;-68
2021/01/29 05:27:10;;;;;;;2.75;0.80;;;9.10;99.90;;;;;;5030948;28;20041;-68
2021/01/29 05:29:44;;;;;;;6.85;1.10;;;9.10;99.90;;;;;;5031999;28;20474;-68
2021/01/29 05:32:20;;;;;;;4.72;1.40;;;9.10;99.90;;;;;;5030345;28;20013;-69
2021/01/29 05:35:17;;;;;;;2.00;0.95;;;9.10;99.90;;;;;;5031329;28;20025;-68
2021/01/29 05:37:54;;;;;;;5.20;1.63;;;9.10;99.90;;;;;;5030534;28;20037;-68
2021/01/29 05:41:00;;;;;;;3.30;1.23;;;9.00;99.90;;;;;;5031618;28;20079;-68
2021/01/29 05:43:40;;;;;;;4.28;1.33;;;9.00;99.90;;;;;;5033462;28;20036;-68
2021/01/29 05:46:38;;;;;;;4.30;1.10;;;9.00;99.90;;;;;;5034412;28;20033;-68
2021/01/29 05:49:20;;;;;;;10.70;2.03;;;9.00;99.90;;;;;;5011296;28;20026;-68
2021/01/29 05:52:04;;;;;;;5.88;1.20;;;8.90;99.90;;;;;;5033731;28;20153;-68
2021/01/29 05:54:35;;;;;;;14.10;1.70;;;8.90;99.90;;;;;;5034976;28;20347;-68
2021/01/29 05:57:19;;;;;;;;;;;8.90;99.90;;;;;;5035609;28;20428;-68
2021/01/29 06:00:19;;;;;;;6.50;1.45;;;8.90;99.90;;;;;;5020978;28;20368;-68
2021/01/29 06:03:09;;;;;;;7.28;1.70;;;8.90;99.90;;;;;;5034612;28;20109;-68
2021/01/29 06:06:01;;;;;;;3.53;1.00;;;9.00;99.90;;;;;;5034410;28;20037;-68
2021/01/29 06:08:45;;;;;;;14.65;2.22;;;9.00;99.90;;;;;;5034772;28;20060;-68
2021/01/29 06:11:42;;;;;;;7.80;1.40;;;9.00;99.90;;;;;;5034719;28;20172;-68
2021/01/29 06:14:55;;;;;;;6.82;1.83;;;9.00;99.90;;;;;;5030837;28;20033;-68
2021/01/29 06:17:20;;;;;;;9.70;1.88;;;8.90;99.90;;;;;;5027133;28;20037;-68
2021/01/29 06:20:15;;;;;;;7.03;1.25;;;8.90;99.90;;;;;;5040370;28;20030;-68
2021/01/29 06:22:58;;;;;;;7.88;1.45;;;8.90;99.90;;;;;;5047022;28;20137;-68
2021/01/29 06:26:05;;;;;;;8.45;1.85;;;9.00;99.90;;;;;;5050669;28;20112;-68
2021/01/29 06:28:58;;;;;;;7.22;1.20;;;9.10;99.90;;;;;;5051090;28;20036;-69
2021/01/29 06:32:05;;;;;;;5.22;0.98;;;9.00;99.90;;;;;;5051628;28;20457;-69
2021/01/29 06:34:39;;;;;;;3.63;0.80;;;9.10;99.90;;;;;;5015885;28;20323;-69
2021/01/29 06:37:17;;;;;;;1.63;0.88;;;9.00;99.90;;;;;;5052059;28;20049;-69
2021/01/29 06:39:42;;;;;;;4.57;0.98;;;9.00;99.90;;;;;;5048980;28;20025;-69
2021/01/29 06:42:23;;;;;;;6.50;1.38;;;9.00;99.90;;;;;;5046868;28;20384;-69
2021/01/29 06:44:52;;;;;;;12.30;2.28;;;9.00;99.90;;;;;;5050159;28;20037;-68
2021/01/29 06:47:53;;;;;;;15.40;3.10;;;9.10;99.90;;;;;;5048110;28;20041;-68
2021/01/29 06:50:56;;;;;;;10.32;2.05;;;9.20;99.90;;;;;;5052010;28;20025;-68
2021/01/29 06:53:22;;;;;;;9.82;2.40;;;9.20;99.90;;;;;;5047431;28;20132;-68
2021/01/29 06:56:17;;;;;;;9.23;2.03;;;9.30;99.90;;;;;;5049488;28;20108;-68
2021/01/29 06:58:58;;;;;;;19.30;3.33;;;9.30;99.90;;;;;;5021482;28;20436;-68
2021/01/29 07:01:48;;;;;;;11.55;2.90;;;9.30;99.90;;;;;;5044786;28;20025;-68
2021/01/29 07:04:32;;;;;;;13.10;2.88;;;9.40;99.90;;;;;;5049196;28;20025;-68
2021/01/29 07:07:35;;;;;;;14.00;2.38;;;9.40;99.90;;;;;;5050972;28;20396;-68
2021/01/29 07:10:14;;;;;;;13.10;2.50;;;9.50;99.90;;;;;;5051545;28;20076;-68
2021/01/29 07:13:24;;;;;;;14.25;2.28;;;9.50;99.90;;;;;;5050635;28;20044;-68
2021/01/29 07:16:07;;;;;;;12.57;2.85;;;9.50;99.90;;;;;;5003109;28;20022;-68
2021/01/29 07:19:07;;;;;;;13.63;2.13;;;9.40;99.90;;;;;;5048820;28;20038;-68
2021/01/29 07:22:04;;;;;;;19.85;2.97;;;9.40;99.90;;;;;;5051600;28;20029;-68
2021/01/29 07:25:01;;;;;;;12.02;2.80;;;9.40;99.90;;;;;;5047510;28;20120;-68
2021/01/29 07:28:00;;;;;;;20.58;3.60;;;9.30;99.90;;;;;;5047724;28;20108;-68
2021/01/29 07:30:44;;;;;;;20.42;3.40;;;9.30;99.90;;;;;;5046234;28;20017;-68
2021/01/29 07:33:36;;;;;;;26.92;5.05;;;9.20;99.90;;;;;;5049247;28;20472;-68
2021/01/29 07:36:47;;;;;;;16.45;4.28;;;9.20;99.90;;;;;;5047458;28;20103;-68
2021/01/29 07:39:49;;;;;;;19.42;3.42;;;9.20;99.90;;;;;;5049375;28;20032;-69
2021/01/29 07:42:47;;;;;;;34.72;4.28;;;9.10;99.90;;;;;;5050503;28;20098;-69
2021/01/29 07:45:25;;;;;;;32.38;3.78;;;9.20;99.90;;;;;;5050449;28;20829;-70
2021/01/29 07:48:13;;;;;;;34.55;5.60;;;9.20;99.90;;;;;;5045681;28;20115;-69
2021/01/29 07:50:41;;;;;;;24.75;4.07;;;9.20;99.90;;;;;;5043621;28;20513;-69
2021/01/29 07:53:20;;;;;;;34.03;4.70;;;9.30;99.90;;;;;;5043304;28;20050;-68
2021/01/29 07:55:58;;;;;;;42.78;6.97;;;9.30;99.90;;;;;;5047745;28;20082;-67
2021/01/29 07:58:37;;;;;;;33.45;5.90;;;9.30;99.90;;;;;;5047549;28;20533;-68
2021/01/29 08:01:26;;;;;;;35.03;4.72;;;9.30;99.90;;;;;;5051876;28;20108;-67
2021/01/29 08:04:16;;;;;;;35.63;5.00;;;9.30;99.90;;;;;;5049534;28;20033;-68
2021/01/29 08:07:27;;;;;;;34.75;4.47;;;9.30;99.90;;;;;;5049160;28;20033;-68
2021/01/29 08:09:59;;;;;;;37.95;5.53;;;9.30;99.90;;;;;;5047031;28;20036;-68
2021/01/29 08:12:26;;;;;;;23.20;3.67;;;9.30;99.90;;;;;;5046087;28;20595;-69
2021/01/29 08:15:10;;;;;;;27.50;4.30;;;9.30;99.90;;;;;;5037280;28;20033;-69
2021/01/29 08:17:55;;;;;;;41.55;5.38;;;9.20;99.90;;;;;;5022725;28;20087;-69
2021/01/29 08:20:48;;;;;;;40.00;5.78;;;9.20;99.90;;;;;;5031893;28;20045;-68
2021/01/29 08:23:38;;;;;;;44.85;5.88;;;9.20;99.90;;;;;;5032726;28;20034;-68
2021/01/29 08:26:24;;;;;;;38.40;7.25;;;9.20;99.90;;;;;;5031541;28;20025;-69
2021/01/29 08:29:01;;;;;;;29.40;4.72;;;9.10;99.90;;;;;;5031931;28;20017;-69
2021/01/29 08:31:45;;;;;;;30.85;4.63;;;9.10;99.90;;;;;;5032540;28;20021;-68
2021/01/29 08:34:39;;;;;;;54.95;7.43;;;9.20;99.90;;;;;;5031847;28;20052;-70
2021/01/29 08:37:11;;;;;;;35.10;4.43;;;9.20;99.90;;;;;;5032016;28;20028;-69
2021/01/29 08:40:01;;;;;;;36.80;4.78;;;9.20;99.90;;;;;;5032688;28;20124;-69
2021/01/29 08:43:03;;;;;;;42.80;4.80;;;9.20;99.90;;;;;;5032497;28;20099;-67
2021/01/29 08:45:41;;;;;;;20.95;3.90;;;9.30;99.90;;;;;;5028156;28;20041;-68
2021/01/29 08:48:11;;;;;;;36.17;6.18;;;9.20;99.90;;;;;;5051329;28;20029;-69
2021/01/29 08:51:10;;;;;;;41.08;5.90;;;9.30;99.90;;;;;;5032669;28;20037;-69
2021/01/29 08:53:49;;;;;;;40.30;5.05;;;9.30;99.90;;;;;;5034173;28;20048;-69
2021/01/29 08:56:27;;;;;;;42.15;6.00;;;9.30;99.90;;;;;;5038300;28;20017;-69
2021/01/29 08:59:06;;;;;;;34.60;5.35;;;9.30;99.90;;;;;;5031840;28;20075;-67
2021/01/29 09:01:37;;;;;;;42.45;5.78;;;9.30;99.90;;;;;;5042439;28;20465;-69
2021/01/29 09:04:09;;;;;;;22.38;3.67;;;9.30;99.90;;;;;;5051965;28;20021;-69
2021/01/29 09:06:41;;;;;;;47.70;6.60;;;9.40;99.90;;;;;;5034889;28;20083;-70
2021/01/29 09:09:20;;;;;;;44.88;5.72;;;9.40;99.90;;;;;;5031719;28;20026;-70
2021/01/29 09:11:49;;;;;;;43.75;4.95;;;9.40;99.90;;;;;;5031612;28;20028;-69
2021/01/29 09:14:37;;;;;;;35.65;4.45;;;9.40;99.90;;;;;;5031995;28;20428;-69
2021/01/29 09:17:08;;;;;;;38.08;5.82;;;9.40;99.90;;;;;;5030650;28;20026;-68
2021/01/29 09:19:40;;;;;;;40.63;6.32;;;9.40;99.90;;;;;;5041632;28;20025;-69
2021/01/29 09:22:33;;;;;;;45.00;4.88;;;9.40;99.90;;;;;;5055332;28;20029;-69
2021/01/29 09:25:20;;;;;;;37.47;5.82;;;9.40;99.90;;;;;;5055469;28;20060;-69
2021/01/29 09:28:09;;;;;;;36.10;5.25;;;9.50;99.90;;;;;;5028624;28;20045;-70
2021/01/29 09:30:56;;;;;;;32.17;4.88;;;9.50;99.90;;;;;;5055215;28;20044;-69
2021/01/29 09:33:44;;;;;;;46.67;7.13;;;9.50;99.90;;;;;;5024576;28;20053;-69
2021/01/29 09:36:20;;;;;;;43.72;5.82;;;9.50;99.90;;;;;;5045963;28;20029;-70
2021/01/29 09:39:14;;;;;;;31.20;4.20;;;9.50;99.90;;;;;;5035485;28;20125;-68
2021/01/29 09:41:46;;;;;;;28.90;6.75;;;9.60;99.90;;;;;;5032522;28;20025;-68
2021/01/29 09:44:44;;;;;;;38.70;5.30;;;9.60;99.90;;;;;;5047470;28;20035;-69
2021/01/29 09:47:16;;;;;;;42.75;5.57;;;9.70;99.90;;;;;;5048413;28;20041;-69
2021/01/29 09:49:43;;;;;;;34.20;5.10;;;9.70;99.90;;;;;;5052726;28;20041;-69
2021/01/29 09:52:32;;;;;;;38.85;5.10;;;9.70;99.90;;;;;;5053415;28;20485;-68
2021/01/29 09:55:07;;;;;;;34.25;4.53;;;9.80;99.90;;;;;;5055072;28;20021;-68
2021/01/29 09:57:38;;;;;;;30.52;6.22;;;9.80;99.90;;;;;;5054732;28;20017;-68
2021/01/29 10:00:14;;;;;;;50.13;6.32;;;9.90;99.90;;;;;;5054725;28;20036;-68
2021/01/29 10:03:02;;;;;;;28.75;4.05;;;9.90;99.90;;;;;;5055066;28;20107;-69
2021/01/29 10:05:39;;;;;;;33.58;5.70;;;10.00;99.90;;;;;;5046721;28;20096;-68
2021/01/29 10:08:10;;;;;;;27.98;4.45;;;10.10;99.90;;;;;;5034771;28;20363;-68
2021/01/29 10:10:59;;;;;;;;;;;10.10;99.90;;;;;;5038807;28;20025;-69
2021/01/29 10:13:35;;;;;;;23.35;4.35;;;10.20;99.90;;;;;;5039656;28;19936;-68
2021/01/29 10:16:25;;;;;;;28.25;4.90;;;10.20;99.90;;;;;;5052815;28;20111;-68
2021/01/29 10:19:06;;;;;;;29.95;4.53;;;10.20;99.90;;;;;;5052302;28;20025;-67
2021/01/29 10:21:40;;;;;;;33.20;4.35;;;10.30;99.90;;;;;;5051176;28;20032;-69
2021/01/29 10:24:12;;;;;;;37.05;4.57;;;10.30;99.90;;;;;;5052358;28;20022;-68
2021/01/29 10:26:47;;;;;;;27.67;4.28;;;10.20;99.90;;;;;;5052275;28;20037;-68
2021/01/29 10:29:20;;;;;;;27.98;3.92;;;10.20;99.90;;;;;;5044842;28;20025;-74
2021/01/29 10:31:54;;;;;;;30.48;5.32;;;10.20;99.90;;;;;;5044066;28;20013;-69
2021/01/29 10:34:23;;;;;;;34.90;5.75;;;10.20;99.90;;;;;;5050119;28;20041;-69
2021/01/29 10:37:02;;;;;;;27.83;4.35;;;10.10;99.90;;;;;;5045704;28;20424;-69
2021/01/29 10:40:04;;;;;;;35.70;4.15;;;10.20;99.90;;;;;;5051218;28;20029;-69
2021/01/29 10:42:55;;;;;;;29.40;4.25;;;10.10;99.90;;;;;;5042467;28;20101;-69
2021/01/29 10:45:33;;;;;;;18.58;3.38;;;10.10;99.90;;;;;;5046088;28;20044;-68
2021/01/29 10:48:15;;;;;;;30.45;4.13;;;10.10;99.90;;;;;;5042840;28;20033;-69
2021/01/29 10:50:53;;;;;;;34.03;4.63;;;10.00;99.90;;;;;;5049429;28;20352;-69
2021/01/29 10:53:22;;;;;;;20.83;3.03;;;10.00;99.90;;;;;;5050476;28;20049;-70
2021/01/29 10:55:55;;;;;;;20.92;4.07;;;10.00;99.90;;;;;;5053237;28;20032;-69
2021/01/29 10:58:42;;;;;;;22.90;4.60;;;10.00;99.90;;;;;;5053737;28;20025;-69
2021/01/29 11:01:28;;;;;;;20.77;3.40;;;9.90;99.90;;;;;;5028946;28;20024;-69
2021/01/29 11:03:56;;;;;;;29.73;4.50;;;9.90;99.90;;;;;;5053506;28;20025;-69
2021/01/29 11:06:29;;;;;;;42.58;4.05;;;9.90;99.90;;;;;;5038307;28;20030;-69
2021/01/29 11:09:01;;;;;;;27.20;4.32;;;9.90;99.90;;;;;;5047637;28;20025;-70
2021/01/29 11:11:43;;;;;;;25.80;3.90;;;9.90;99.90;;;;;;5051119;28;20021;-69
2021/01/29 11:14:33;;;;;;;30.65;4.22;;;9.80;99.90;;;;;;5052153;28;20025;-69
2021/01/29 11:17:19;;;;;;;16.52;3.03;;;9.80;99.90;;;;;;5048385;28;20021;-70
2021/01/29 11:19:49;;;;;;;27.90;3.85;;;9.80;99.90;;;;;;5043793;28;20021;-69
2021/01/29 11:23:03;;;;;;;30.55;6.20;;;9.70;99.90;;;;;;5042036;28;20062;-69
2021/01/29 11:25:50;;;;;;;29.35;3.72;;;9.70;99.90;;;;;;5028150;28;20512;-69
2021/01/29 11:28:47;;;;;;;32.10;3.70;;;9.70;99.90;;;;;;5033711;28;20116;-70
2021/01/29 11:31:32;;;;;;;29.88;5.13;;;9.70;99.90;;;;;;5028492;28;20128;-68
2021/01/29 11:33:59;;;;;;;24.23;5.55;;;9.70;99.90;;;;;;5032724;28;20481;-68
2021/01/29 11:36:39;;;;;;;34.55;4.07;;;9.80;99.90;;;;;;5032453;28;20416;-69
2021/01/29 11:39:13;;;;;;;38.55;6.22;;;9.80;99.90;;;;;;5032986;28;20022;-69
2021/01/29 11:41:58;;;;;;;30.33;3.85;;;9.80;99.90;;;;;;5032603;28;20022;-68
2021/01/29 11:44:43;;;;;;;31.27;4.90;;;9.90;99.90;;;;;;5040526;28;20021;-69
2021/01/29 11:47:31;;;;;;;29.98;5.32;;;9.90;99.90;;;;;;5048411;28;20362;-70
2021/01/29 11:50:07;;;;;;;26.45;4.25;;;9.90;99.90;;;;;;5049978;28;20025;-69
2021/01/29 11:52:39;;;;;;;27.73;4.25;;;9.90;99.90;;;;;;5047109;28;20045;-69
2021/01/29 11:55:14;;;;;;;25.95;3.58;;;9.90;99.90;;;;;;5032477;28;20022;-69
2021/01/29 11:58:21;;;;;;;17.77;3.28;;;9.90;99.90;;;;;;5035083;28;20159;-69
2021/01/29 12:01:10;;;;;;;28.90;4.53;;;10.00;99.90;;;;;;5035405;28;20021;-71
2021/01/29 12:03:58;;;;;;;22.73;3.70;;;10.10;99.90;;;;;;5046100;28;20025;-68
2021/01/29 12:06:31;;;;;;;22.50;2.63;;;10.10;99.90;;;;;;5047287;28;20048;-68
2021/01/29 12:09:18;;;;;;;25.65;4.40;;;10.20;99.90;;;;;;5048584;28;20017;-68
2021/01/29 12:12:09;;;;;;;23.50;5.28;;;10.20;99.90;;;;;;5027660;28;20041;-68
2021/01/29 12:15:11;;;;;;;13.20;3.22;;;10.20;99.90;;;;;;5044389;28;20102;-68
2021/01/29 12:17:38;;;;;;;21.00;3.67;;;10.30;99.90;;;;;;5049922;28;20385;-69
2021/01/29 12:20:09;;;;;;;23.42;3.97;;;10.40;99.90;;;;;;5049499;28;20024;-70
2021/01/29 12:22:43;;;;;;;23.17;3.67;;;10.40;99.90;;;;;;5041559;28;20029;-69
2021/01/29 12:25:39;;;;;;;20.70;4.88;;;10.50;99.90;;;;;;5048438;28;20394;-69
2021/01/29 12:28:32;;;;;;;21.00;4.70;;;10.60;99.90;;;;;;5051559;28;20033;-69
2021/01/29 12:31:22;;;;;;;21.95;3.97;;;10.60;99.90;;;;;;5052031;28;20389;-69
2021/01/29 12:33:56;;;;;;;12.35;2.42;;;10.60;99.90;;;;;;5037056;28;20021;-70
2021/01/29 12:36:26;;;;;;;22.17;4.22;;;10.60;99.90;;;;;;5052087;28;20579;-69
2021/01/29 12:39:03;;;;;;;17.42;2.95;;;10.50;99.90;;;;;;5050613;28;20052;-70
2021/01/29 12:41:47;;;;;;;20.05;2.78;;;10.40;99.90;;;;;;5052124;28;20029;-69
2021/01/29 12:44:42;;;;;;;18.55;2.75;;;10.30;99.90;;;;;;5024931;28;20575;-69
2021/01/29 12:47:48;;;;;;;26.63;4.53;;;10.30;99.90;;;;;;5050686;28;20041;-69
2021/01/29 12:50:49;;;;;;;27.75;4.78;;;10.20;99.90;;;;;;5050234;28;20037;-69
2021/01/29 12:53:39;;;;;;;31.75;2.85;;;10.10;99.90;;;;;;5031428;28;20079;-68
2021/01/29 12:56:19;;;;;;;33.78;3.97;;;10.20;99.90;;;;;;5023653;28;20020;-70
2021/01/29 12:58:55;;;;;;;25.80;3.63;;;10.10;99.90;;;;;;5051300;28;20032;-70
2021/01/29 13:01:36;;;;;;;30.55;3.58;;;10.20;99.90;;;;;;5050835;28;20384;-69
2021/01/29 13:04:07;;;;;;;25.80;3.83;;;10.30;99.90;;;;;;5051041;28;20487;-69
2021/01/29 13:07:01;;;;;;;35.92;4.82;;;10.30;99.90;;;;;;5034595;28;20055;-70
2021/01/29 13:09:57;;;;;;;17.45;3.90;;;10.40;99.90;;;;;;5046737;28;20071;-69
2021/01/29 13:12:48;;;;;;;11.90;2.78;;;10.40;99.90;;;;;;5039352;28;20075;-69
2021/01/29 13:15:32;;;;;;;;;;;10.40;99.90;;;;;;5038487;28;20021;-69
2021/01/29 13:18:14;;;;;;;25.25;4.20;;;10.40;99.90;;;;;;5034414;28;19913;-68
2021/01/29 13:20:44;;;;;;;24.92;3.00;;;10.40;99.90;;;;;;5031480;28;20018;-69
2021/01/29 13:23:31;;;;;;;20.98;2.38;;;10.40;99.90;;;;;;5027428;28;20561;-68
2021/01/29 13:26:25;;;;;;;19.45;3.10;;;10.30;99.90;;;;;;5031097;28;20034;-69
2021/01/29 13:29:14;;;;;;;23.33;3.15;;;10.40;99.90;;;;;;5030431;28;20108;-69
2021/01/29 13:31:40;;;;;;;24.02;3.28;;;10.30;99.90;;;;;;5027827;28;20025;-69
2021/01/29 13:34:19;;;;;;;24.25;4.55;;;10.30;99.90;;;;;;5031391;28;20021;-69
2021/01/29 13:37:05;;;;;;;25.40;3.08;;;10.30;99.90;;;;;;5027218;28;20108;-69
2021/01/29 13:39:38;;;;;;;20.15;2.90;;;10.30;99.90;;;;;;5031358;28;20128;-69
2021/01/29 13:42:43;;;;;;;19.92;4.13;;;10.30;99.90;;;;;;5031208;28;20504;-69
2021/01/29 13:45:23;;;;;;;19.85;2.53;;;10.30;99.90;;;;;;5009198;28;20026;-69
2021/01/29 13:48:15;;;;;;;26.05;4.78;;;10.30;99.90;;;;;;5009180;28;20042;-69
2021/01/29 13:50:46;;;;;;;14.05;3.67;;;10.30;99.90;;;;;;5018146;28;20481;-69
2021/01/29 13:53:34;;;;;;;;;;;10.30;99.90;;;;;;5031402;28;20095;-69